Flight Track Log - Related Links

Times and Time Zones

All times are in EDT time to prevent confusion due to time zone crossing. See the DAL268 flight status page for this flight to view local times or setup timezone preferences in your user account.

Time Position Orientation Groundspeed Altitude Reporting Facility
EDT Latitude Longitude Course Direction KTS MPH feet Rate Location/Type
Tue 09:29:48 PM 40.6450 -73.7680 180° South 76 87  Level FlightAware ADS-B
Tue 09:30:08 PM 40.6350 -73.7750 208° Southwest 145 167 1,000 Level FlightAware ADS-B
Tue 09:30:36 PM 40.6160 -73.7890 209° Southwest 173 199 800 1,655 Climbing FlightAware ADS-B
Tue 09:31:06 PM 40.5930 -73.8020 203° Southwest 186 214 1,600 1,538 Climbing FlightAware ADS-B
Tue 09:31:15 PM 40.5860 -73.8030 186° South 194 223 1,800 1,125 Climbing FlightAware ADS-B
Tue 09:31:54 PM 40.5620 -73.7690 133° Southeast 217 250 2,500 1,024 Climbing FlightAware ADS-B
Tue 09:31:56 PM 40.5620 -73.7660 90° East 217 250 2,500 1,364 Level FlightAware ADS-B
Tue 09:32:38 PM 40.5690 -73.7120 80° East 216 249 3,500 1,043 Climbing FlightAware ADS-B
Tue 09:33:05 PM 40.5740 -73.6760 80° East 238 274 3,700 692 Climbing FlightAware ADS-B
Tue 09:33:30 PM 40.5660 -73.6420 107° East 250 288 4,100 1,067 Climbing FlightAware ADS-B
Tue 09:33:50 PM 40.5580 -73.6110 109° East 261 300 4,500 1,050 Climbing FlightAware ADS-B
Tue 09:34:10 PM 40.5500 -73.5810 109° East 277 319 4,800 1,200 Climbing FlightAware ADS-B
Tue 09:34:40 PM 40.5370 -73.5320 109° East 297 342 5,500 1,500 Climbing FlightAware ADS-B
Tue 09:35:10 PM 40.5230 -73.4810 110° East 311 358 6,300 1,800 Climbing FlightAware ADS-B
Tue 09:35:40 PM 40.5080 -73.4260 110° East 321 369 7,300 1,964 Climbing FlightAware ADS-B
Tue 09:36:05 PM 40.4960 -73.3800 109° East 327 376 8,100 2,267 Climbing FlightAware ADS-B
Tue 09:36:25 PM 40.4850 -73.3430 111° Southeast 324 373 9,000 2,211 Climbing FlightAware ADS-B
Tue 09:37:02 PM 40.4813 -73.3278 108° East 328 377 10,200 1,457 Climbing FlightAware ADS-B (KSNC)
Tue 09:37:35 PM 40.4471 -73.2012 110° East 364 419 10,700 750 Climbing FlightAware ADS-B (KSNC)
Tue 09:38:06 PM 40.4302 -73.1357 109° East 390 449 11,000 964 Climbing FlightAware ADS-B (KSNC)
Tue 09:38:31 PM 40.4285 -73.0717 92° East 421 484 11,600 1,636 Climbing FlightAware ADS-B (KSNC)
Tue 09:39:23 PM 40.4446 -72.9356 81° East 445 512 13,100 1,667 Climbing FlightAware ADS-B (KSNC)
Tue 09:40:01 PM 40.4597 -72.8339 79° East 458 527 14,100 1,714 Climbing FlightAware ADS-B (KSNC)
Tue 09:40:40 PM 40.4750 -72.7253 79° East 472 543 15,300 1,775 Climbing FlightAware ADS-B (KSNC)
Tue 09:41:12 PM 40.4877 -72.6342 80° East 480 552 16,200 1,714 Climbing FlightAware ADS-B (KSNC)
Tue 09:41:50 PM 40.5018 -72.5297 80° East 491 565 17,300 1,676 Climbing FlightAware ADS-B (KSNC)
Tue 09:42:20 PM 40.5146 -72.4349 80° East 500 575 18,100 1,742 Climbing FlightAware ADS-B (KSNC)
Tue 09:42:52 PM 40.5079 -72.4852 260° West 503 579 19,100 1,606 Climbing FlightAware ADS-B (KSNC)
Tue 09:43:31 PM 40.5420 -72.2290 80° East 512 589 20,000 1,404 Climbing FlightAware ADS-B
Tue 09:44:26 PM 40.5660 -72.0510 80° East 527 606 21,300 1,234 Climbing FlightAware ADS-B
Tue 09:45:18 PM 40.5880 -71.8810 80° East 547 629 22,200 1,011 Climbing FlightAware ADS-B
Tue 09:45:55 PM 40.6040 -71.7610 80° East 558 642 22,800 1,174 Climbing FlightAware ADS-B
Tue 09:46:50 PM 40.6280 -71.5750 80° East 570 656 24,000 1,186 Climbing FlightAware ADS-B
Tue 09:47:21 PM 40.6420 -71.4640 81° East 578 665 24,500 1,034 Climbing FlightAware ADS-B
Tue 09:48:17 PM 40.6660 -71.2710 81° East 591 680 25,500 1,077 Climbing FlightAware ADS-B
Tue 09:48:39 PM 40.6770 -71.1880 80° East 597 687 25,900 923 Climbing FlightAware ADS-B
Tue 09:49:09 PM 40.6900 -71.0800 81° East 603 694 26,300 811 Climbing FlightAware ADS-B
Tue 09:49:53 PM 40.7090 -70.9190 81° East 614 707 26,900 558 Climbing FlightAware ADS-B
Tue 09:50:35 PM 40.7260 -70.7870 80° East 616 709 27,100 135 Climbing FlightAware ADS-B
Tue 09:51:22 PM 40.7430 -70.6380 81° East 616 709 27,100  Level FlightAware ADS-B
Tue 09:51:47 PM 40.7530 -70.5590 80° East 616 709 27,100  Level FlightAware ADS-B
Tue 09:52:47 PM 40.7760 -70.3700 81° East 616 709 27,100  Level FlightAware ADS-B
Tue 09:53:11 PM 40.7850 -70.2940 81° East 616 709 27,100  Level FlightAware ADS-B
Tue 09:53:48 PM 40.7990 -70.1770 81° East 616 709 27,100 2,805 Level FlightAware ADS-B
Tue 09:54:28 PM 40.8283 -69.8808 81° East 650 748 30,700 3,146 Climbing New York Center
Tue 09:55:10 PM 40.8458 -69.7389 81° East 656 755 31,400 765 Climbing Boston Center
Tue 09:56:10 PM 40.8708 -69.5061 82° East 648 746 32,000 303 Climbing Boston Center
Tue 09:57:09 PM 40.8975 -69.2703 81° East 652 750 32,000  Level Boston Center
Tue 09:58:09 PM 40.9222 -69.0347 82° East 651 749 32,000  Level Boston Center
Tue 09:59:13 PM 40.9456 -68.7994 82° East 651 749 32,000  Level Boston Center
Tue 10:00:13 PM 40.9697 -68.5614 82° East 654 753 32,000  Level Boston Center
Tue 10:01:14 PM 40.9981 -68.2767 82° East 654 753 32,000  Level Boston Center
Tue 10:02:28 PM 41.0269 -67.9783 83° East 655 754 32,000  Level New York Center
Tue 10:03:28 PM 41.0483 -67.7436 83° East 655 754 32,000  Level New York Center
Tue 10:04:28 PM 41.0714 -67.5033 83° East 655 754 32,000  Level New York Center
Tue 10:05:28 PM 41.0919 -67.2683 83° East 655 754 32,000  Level New York Center
Tue 10:06:28 PM 41.1097 -67.0306 84° East 655 754 32,000  Level New York Center
Tue 10:06:45 PM 41.1167 -67.0000 78° East 647 745 32,000  Level New York Oceanic (ODAPS)
Tue 10:06:54 PM 41.1167 -66.9667 78° East 646 743 32,000  Level New York Oceanic (ODAPS)
Tue 10:07:28 PM 41.1458 -66.7944 78° East 655 754 32,000  Level New York Center
Tue 10:09:18 PM 41.2119 -66.3850 78° East 648 746 32,000  Level Boston Center
Tue 10:10:21 PM 41.2472 -66.1511 79° East 648 746 32,000  Level Boston Center
Tue 10:11:21 PM 41.2811 -65.9194 79° East 646 743 32,000  Level Boston Center
Tue 10:12:22 PM 41.3161 -65.6864 79° East 644 741 32,000  Level Boston Center
Tue 10:13:22 PM 41.3550 -65.4375 78° East 643 740 32,000  Level Boston Center
Tue 10:15:00 PM 41.4012 -65.1119 79° East  Level FlightAware Approximate
Tue 10:22:00 PM 41.5890 -63.7113 79° East  Level FlightAware Approximate
Tue 10:23:00 PM 41.6144 -63.5106 80° East  Level FlightAware Approximate
Tue 10:24:00 PM 41.6395 -63.3097 80° East  Level FlightAware Approximate
Tue 10:25:00 PM 41.6642 -63.1086 81° East  Level FlightAware Approximate
Tue 10:26:00 PM 41.6886 -62.9074 81° East  Level FlightAware Approximate
Tue 10:27:00 PM 41.7127 -62.7061 81° East  Level FlightAware Approximate
Tue 10:27:09 PM 41.7667 -62.2333 81° East 649 747 32,000  Level New York Oceanic (ODAPS)
Tue 10:28:00 PM 41.7363 -62.5046 81° East  Level FlightAware Approximate
Tue 10:29:00 PM 41.7597 -62.3029 81° East  Level FlightAware Approximate
Tue 10:30:00 PM 41.7826 -62.1011 81° East  Level FlightAware Approximate
Tue 10:31:00 PM 41.8053 -61.8992 81° East  Level FlightAware Approximate
Tue 10:32:00 PM 41.8275 -61.6971 82° East  Level FlightAware Approximate
Tue 10:33:00 PM 41.9270 -60.7462 82° East 649 747 32,000  Level FlightAware Transoceanic
Tue 10:34:00 PM 41.9519 -60.4977 82° East 649 747 32,000  Level FlightAware Transoceanic
Tue 10:35:00 PM 41.9762 -60.2489 83° East 649 747 32,000  Level FlightAware Transoceanic
Tue 10:36:00 PM 42.0000 -60.0000 79° East 649 747 32,000  Level FlightAware Transoceanic
Tue 10:36:32 PM 42.0000 -60.0000 79° East 627 722 32,000  Level New York Oceanic (ODAPS)
Tue 10:37:00 PM 42.0323 -59.7767 79° East 649 747 32,000  Level FlightAware Transoceanic
Tue 10:38:00 PM 42.0641 -59.5532 79° East 649 747 32,000  Level FlightAware Transoceanic
Tue 10:39:00 PM 42.0956 -59.3295 79° East 649 747 32,000  Level FlightAware Transoceanic
Tue 10:40:00 PM 42.1265 -59.1056 80° East 649 747 32,000  Level FlightAware Transoceanic
Tue 10:41:00 PM 42.1571 -58.8814 80° East 649 747 32,000  Level FlightAware Transoceanic
Tue 10:42:00 PM 42.1913 -58.6257 80° East 627 722 32,000  Level FlightAware Transoceanic
Tue 10:43:00 PM 42.2216 -58.3959 80° East 627 722 32,000  Level FlightAware Transoceanic
Tue 10:44:00 PM 42.2515 -58.1658 80° East 627 722 32,000  Level FlightAware Transoceanic
Tue 10:45:00 PM 42.2808 -57.9355 80° East 627 722 32,000  Level FlightAware Transoceanic
Tue 10:46:00 PM 42.3097 -57.7051 80° East 627 722 32,000  Level FlightAware Transoceanic
Tue 10:47:00 PM 42.3382 -57.4743 81° East 627 722 32,000 674 Level FlightAware Transoceanic
Tue 10:47:29 PM 42.3500 -57.4500 81° East 617 710 33,000  Climbing New York Oceanic (ODAPS)
Tue 10:48:00 PM 42.3662 -57.2434 81° East 627 722 32,000 -659 Descending FlightAware Transoceanic
Tue 10:49:00 PM 42.3937 -57.0123 81° East 627 722 32,000  Level FlightAware Transoceanic
Tue 10:50:00 PM 42.4208 -56.7810 81° East 627 722 32,000  Level FlightAware Transoceanic
Tue 10:51:00 PM 42.4474 -56.5495 81° East 627 722 32,000  Level FlightAware Transoceanic
Tue 10:52:00 PM 42.4735 -56.3178 81° East 627 722 32,000 500 Level FlightAware Transoceanic
Tue 10:53:00 PM 42.5085 -56.0659 82° East 617 710 33,000 500 Climbing FlightAware Transoceanic
Tue 10:54:00 PM 42.5333 -55.8345 82° East 617 710 33,000  Level FlightAware Transoceanic
Tue 10:55:00 PM 42.5576 -55.6030 82° East 617 710 33,000  Level FlightAware Transoceanic
Tue 10:56:00 PM 42.5815 -55.3713 82° East 617 710 33,000  Level FlightAware Transoceanic
Tue 10:57:00 PM 42.6049 -55.1394 82° East 617 710 33,000  Level FlightAware Transoceanic
Tue 10:58:00 PM 42.6278 -54.9073 82° East 617 710 33,000  Level FlightAware Transoceanic
Tue 10:59:00 PM 42.6503 -54.6751 83° East 617 710 33,000  Level FlightAware Transoceanic
Tue 11:00:00 PM 42.6722 -54.4427 83° East 617 710 33,000  Level FlightAware Transoceanic
Tue 11:01:00 PM 42.6938 -54.2101 83° East 617 710 33,000  Level FlightAware Transoceanic
Tue 11:02:00 PM 42.7148 -53.9774 83° East 617 710 33,000  Level FlightAware Transoceanic
Tue 11:03:00 PM 42.7354 -53.7445 83° East 617 710 33,000  Level FlightAware Transoceanic
Tue 11:04:00 PM 42.7555 -53.5115 83° East 617 710 33,000  Level FlightAware Transoceanic
Tue 11:05:00 PM 42.7751 -53.2783 84° East 617 710 33,000  Level FlightAware Transoceanic
Tue 11:06:00 PM 42.7943 -53.0450 84° East 617 710 33,000  Level FlightAware Transoceanic
Tue 11:07:00 PM 42.8130 -52.8115 84° East 617 710 33,000  Level FlightAware Transoceanic
Tue 11:07:52 PM 42.8167 -52.7000 84° East 614 707 33,000  Level New York Oceanic (ODAPS)
Tue 11:08:00 PM 42.8312 -52.5779 84° East 617 710 33,000  Level FlightAware Transoceanic
Tue 11:09:00 PM 42.8489 -52.3442 84° East 617 710 33,000  Level FlightAware Transoceanic
Tue 11:10:00 PM 42.8662 -52.1103 84° East 617 710 33,000  Level FlightAware Transoceanic
Tue 11:11:00 PM 42.8829 -51.8763 84° East 617 710 33,000  Level FlightAware Transoceanic
Tue 11:12:00 PM 42.8993 -51.6421 85° East 617 710 33,000  Level FlightAware Transoceanic
Tue 11:13:00 PM 42.9151 -51.4079 85° East 617 710 33,000  Level FlightAware Transoceanic
Tue 11:14:00 PM 42.9313 -51.1269 85° East 614 707 33,000  Level FlightAware Transoceanic
Tue 11:15:00 PM 42.9459 -50.9017 85° East 614 707 33,000  Level FlightAware Transoceanic
Tue 11:16:00 PM 42.9601 -50.6765 85° East 614 707 33,000  Level FlightAware Transoceanic
Tue 11:17:00 PM 42.9739 -50.4511 85° East 614 707 33,000  Level FlightAware Transoceanic
Tue 11:18:00 PM 42.9871 -50.2256 85° East 614 707 33,000  Level FlightAware Transoceanic
Tue 11:19:00 PM 43.0000 -50.0000 87° East 614 707 33,000  Level FlightAware Transoceanic
Tue 11:19:46 PM 43.0000 -50.0000 87° East 603 694 33,000  Level New York Oceanic (ODAPS)
Tue 11:20:00 PM 43.0097 -49.7732 87° East 614 707 33,000  Level FlightAware Transoceanic
Tue 11:21:00 PM 43.0189 -49.5464 87° East 614 707 33,000  Level FlightAware Transoceanic
Tue 11:22:00 PM 43.0277 -49.3195 87° East 614 707 33,000  Level FlightAware Transoceanic
Tue 11:23:00 PM 43.0360 -49.0925 87° East 614 707 33,000  Level FlightAware Transoceanic
Tue 11:24:00 PM 43.0439 -48.8655 87° East 614 707 33,000  Level FlightAware Transoceanic
Tue 11:25:00 PM 43.0513 -48.6384 88° East 614 707 33,000  Level FlightAware Transoceanic
Tue 11:26:00 PM 43.0583 -48.4113 88° East 603 694 33,000  Level FlightAware Transoceanic
Tue 11:27:00 PM 43.0648 -48.1841 88° East 603 694 33,000  Level FlightAware Transoceanic
Tue 11:27:55 PM 43.0667 -48.0333 88° East 597 687 33,000  Level New York Oceanic (ODAPS)
Tue 11:28:00 PM 43.0709 -47.9568 88° East 603 694 33,000  Level FlightAware Transoceanic
Tue 11:29:00 PM 43.0765 -47.7295 88° East 603 694 33,000  Level FlightAware Transoceanic
Tue 11:30:00 PM 43.0817 -47.5022 88° East 603 694 33,000  Level FlightAware Transoceanic
Tue 11:31:00 PM 43.0864 -47.2749 88° East 603 694 33,000  Level FlightAware Transoceanic
Tue 11:32:00 PM 43.0907 -47.0475 89° East 603 694 33,000  Level FlightAware Transoceanic
Tue 11:33:00 PM 43.0946 -46.8200 89° East 603 694 33,000  Level FlightAware Transoceanic
Tue 11:34:00 PM 43.0952 -46.6561 89° East 597 687 33,000  Level FlightAware Transoceanic
Tue 11:35:00 PM 43.0983 -46.4264 89° East 597 687 33,000  Level FlightAware Transoceanic
Tue 11:36:00 PM 43.1010 -46.1968 89° East 597 687 33,000  Level FlightAware Transoceanic
Tue 11:37:00 PM 43.1032 -45.9671 89° East 597 687 33,000  Level FlightAware Transoceanic
Tue 11:38:00 PM 43.1050 -45.7374 89° East 597 687 33,000  Level FlightAware Transoceanic
Tue 11:39:00 PM 43.1063 -45.5077 90° East 597 687 33,000  Level FlightAware Transoceanic
Tue 11:40:00 PM 43.1072 -45.2780 90° East 597 687 33,000  Level FlightAware Transoceanic
Tue 11:41:00 PM 43.1076 -45.0482 90° East 597 687 33,000  Level FlightAware Transoceanic
Tue 11:42:00 PM 43.1075 -44.8185 90° East 597 687 33,000  Level FlightAware Transoceanic
Tue 11:43:00 PM 43.1070 -44.5888 90° East 597 687 33,000  Level FlightAware Transoceanic
Tue 11:44:00 PM 43.1060 -44.3590 90° East 597 687 33,000  Level FlightAware Transoceanic
Tue 11:45:00 PM 43.1045 -44.1293 91° East 597 687 33,000  Level FlightAware Transoceanic
Tue 11:46:00 PM 43.1026 -43.8996 91° East 597 687 33,000  Level FlightAware Transoceanic
Tue 11:47:00 PM 43.1003 -43.6699 91° East 597 687 33,000  Level FlightAware Transoceanic
Tue 11:48:00 PM 43.0974 -43.4403 91° East 597 687 33,000  Level FlightAware Transoceanic
Tue 11:48:21 PM 43.1000 -43.4167 91° East 601 692 33,000  Level New York Oceanic (ODAPS)
Tue 11:49:00 PM 43.0941 -43.2107 91° East 597 687 33,000  Level FlightAware Transoceanic
Tue 11:50:00 PM 43.0904 -42.9810 91° East 597 687 33,000  Level FlightAware Transoceanic
Tue 11:51:00 PM 43.0862 -42.7514 92° East 597 687 33,000  Level FlightAware Transoceanic
Tue 11:52:00 PM 43.0815 -42.5219 92° East 597 687 33,000  Level FlightAware Transoceanic
Tue 11:53:00 PM 43.0764 -42.2924 92° East 597 687 33,000  Level FlightAware Transoceanic
Tue 11:54:00 PM 43.0722 -42.0487 92° East 601 692 33,000  Level FlightAware Transoceanic
Tue 11:55:00 PM 43.0660 -41.8209 92° East 601 692 33,000  Level FlightAware Transoceanic
Tue 11:56:00 PM 43.0593 -41.5930 92° East 601 692 33,000  Level FlightAware Transoceanic
Tue 11:57:00 PM 43.0522 -41.3653 93° East 601 692 33,000  Level FlightAware Transoceanic
Tue 11:58:00 PM 43.0446 -41.1376 93° East 601 692 33,000  Level FlightAware Transoceanic
Tue 11:59:00 PM 43.0366 -40.9099 93° East 601 692 33,000  Level FlightAware Transoceanic
Wed 12:00:00 AM 43.0281 -40.6824 93° East 601 692 33,000  Level FlightAware Transoceanic
Wed 12:01:00 AM 43.0192 -40.4548 93° East 601 692 33,000  Level FlightAware Transoceanic
Wed 12:02:00 AM 43.0098 -40.2274 93° East 601 692 33,000  Level FlightAware Transoceanic
Wed 12:03:00 AM 43.0000 -40.0000 79° East 601 692 33,000  Level FlightAware Transoceanic
Wed 12:04:00 AM 43.0309 -39.7866 79° East 601 692 33,000  Level FlightAware Transoceanic
Wed 12:05:00 AM 43.0614 -39.5729 79° East 601 692 33,000  Level FlightAware Transoceanic
Wed 12:06:00 AM 43.0915 -39.3591 79° East 601 692 33,000  Level FlightAware Transoceanic
Wed 12:07:00 AM 43.1213 -39.1450 79° East 601 692 33,000  Level FlightAware Transoceanic
Wed 12:08:00 AM 43.1506 -38.9308 79° East 601 692 33,000  Level FlightAware Transoceanic
Wed 12:09:00 AM 43.1795 -38.7163 80° East 601 692 33,000  Level FlightAware Transoceanic
Wed 12:10:00 AM 43.2080 -38.5016 80° East 601 692 33,000  Level FlightAware Transoceanic
Wed 12:11:00 AM 43.2361 -38.2868 80° East 601 692 33,000  Level FlightAware Transoceanic
Wed 12:12:00 AM 43.2638 -38.0717 80° East 601 692 33,000  Level FlightAware Transoceanic
Wed 12:13:00 AM 43.2911 -37.8564 80° East 601 692 33,000  Level FlightAware Transoceanic
Wed 12:14:00 AM 43.3180 -37.6410 80° East 601 692 33,000  Level FlightAware Transoceanic
Wed 12:15:00 AM 43.3445 -37.4253 80° East 601 692 33,000  Level FlightAware Transoceanic
Wed 12:16:00 AM 43.3706 -37.2095 81° East 601 692 33,000  Level FlightAware Transoceanic
Wed 12:17:00 AM 43.3963 -36.9935 81° East 601 692 33,000  Level FlightAware Transoceanic
Wed 12:18:00 AM 43.4216 -36.7773 81° East 601 692 33,000  Level FlightAware Transoceanic
Wed 12:19:00 AM 43.4464 -36.5609 81° East 601 692 33,000  Level FlightAware Transoceanic
Wed 12:20:00 AM 43.4709 -36.3444 81° East 601 692 33,000  Level FlightAware Transoceanic
Wed 12:21:00 AM 43.4950 -36.1277 81° East 601 692 33,000  Level FlightAware Transoceanic
Wed 12:22:00 AM 43.5186 -35.9108 82° East 601 692 33,000  Level FlightAware Transoceanic
Wed 12:23:00 AM 43.5418 -35.6937 82° East 601 692 33,000  Level FlightAware Transoceanic
Wed 12:24:00 AM 43.5647 -35.4765 82° East 601 692 33,000  Level FlightAware Transoceanic
Wed 12:25:00 AM 43.5871 -35.2591 82° East 601 692 33,000  Level FlightAware Transoceanic
Wed 12:26:00 AM 43.6091 -35.0415 82° East 601 692 33,000  Level FlightAware Transoceanic
Wed 12:27:00 AM 43.6307 -34.8238 82° East 601 692 33,000  Level FlightAware Transoceanic
Wed 12:28:00 AM 43.6518 -34.6059 82° East 601 692 33,000  Level FlightAware Transoceanic
Wed 12:29:00 AM 43.6726 -34.3879 83° East 601 692 33,000  Level FlightAware Transoceanic
Wed 12:30:00 AM 43.6929 -34.1698 83° East 601 692 33,000  Level FlightAware Transoceanic
Wed 12:31:00 AM 43.7129 -33.9514 83° East 601 692 33,000  Level FlightAware Transoceanic
Wed 12:32:00 AM 43.7324 -33.7330 83° East 601 692 33,000  Level FlightAware Transoceanic
Wed 12:33:00 AM 43.7515 -33.5144 83° East 601 692 33,000  Level FlightAware Transoceanic
Wed 12:34:00 AM 43.7702 -33.2956 83° East 601 692 33,000  Level FlightAware Transoceanic
Wed 12:35:00 AM 43.7884 -33.0768 83° East 601 692 33,000  Level FlightAware Transoceanic
Wed 12:36:00 AM 43.8063 -32.8578 84° East 601 692 33,000  Level FlightAware Transoceanic
Wed 12:37:00 AM 43.8237 -32.6386 84° East 601 692 33,000  Level FlightAware Transoceanic
Wed 12:38:00 AM 43.8407 -32.4194 84° East 601 692 33,000  Level FlightAware Transoceanic
Wed 12:39:00 AM 43.8573 -32.2000 84° East 601 692 33,000  Level FlightAware Transoceanic
Wed 12:40:00 AM 43.8735 -31.9805 84° East 601 692 33,000  Level FlightAware Transoceanic
Wed 12:41:00 AM 43.8892 -31.7609 84° East 601 692 33,000  Level FlightAware Transoceanic
Wed 12:42:00 AM 43.9045 -31.5411 85° East 601 692 33,000  Level FlightAware Transoceanic
Wed 12:43:00 AM 43.9194 -31.3213 85° East 601 692 33,000  Level FlightAware Transoceanic
Wed 12:44:00 AM 43.9339 -31.1013 85° East 601 692 33,000  Level FlightAware Transoceanic
Wed 12:45:00 AM 43.9480 -30.8813 85° East 601 692 33,000  Level FlightAware Transoceanic
Wed 12:46:00 AM 43.9616 -30.6611 85° East 601 692 33,000  Level FlightAware Transoceanic
Wed 12:47:00 AM 43.9748 -30.4408 85° East 601 692 33,000  Level FlightAware Transoceanic
Wed 12:48:00 AM 43.9876 -30.2204 85° East 601 692 33,000 24 Level FlightAware Transoceanic
Wed 12:49:00 AM 44.0132 -30.0137 80° East  Level Estimated
Wed 12:50:00 AM 44.0385 -29.8067 80° East  Level Estimated
Wed 12:51:00 AM 44.0633 -29.5996 80° East  Level Estimated
Wed 12:52:00 AM 44.0878 -29.3923 81° East  Level Estimated
Wed 12:53:00 AM 44.1119 -29.1849 81° East  Level Estimated
Wed 12:54:00 AM 44.1356 -28.9772 81° East  Level Estimated
Wed 12:55:00 AM 44.1590 -28.7695 81° East  Level Estimated
Wed 12:56:00 AM 44.1820 -28.5615 81° East  Level Estimated
Wed 12:57:00 AM 44.2046 -28.3534 81° East  Level Estimated
Wed 12:58:00 AM 44.2268 -28.1451 81° East  Level Estimated
Wed 12:59:00 AM 44.2486 -27.9367 82° East  Level Estimated
Wed 01:00:00 AM 44.2701 -27.7281 82° East  Level Estimated
Wed 01:01:00 AM 44.2912 -27.5194 82° East  Level Estimated
Wed 01:02:00 AM 44.3119 -27.3105 82° East  Level Estimated
Wed 01:03:00 AM 44.3322 -27.1015 82° East  Level Estimated
Wed 01:04:00 AM 44.3521 -26.8923 82° East  Level Estimated
Wed 01:05:00 AM 44.3717 -26.6830 82° East  Level Estimated
Wed 01:06:00 AM 44.3909 -26.4735 83° East  Level Estimated
Wed 01:07:00 AM 44.4097 -26.2639 83° East  Level Estimated
Wed 01:08:00 AM 44.4281 -26.0542 83° East  Level Estimated
Wed 01:09:00 AM 44.4461 -25.8444 83° East  Level Estimated
Wed 01:10:00 AM 44.4637 -25.6344 83° East  Level Estimated
Wed 01:11:00 AM 44.4810 -25.4243 83° East  Level Estimated
Wed 01:12:00 AM 44.4979 -25.2141 84° East  Level Estimated
Wed 01:13:00 AM 44.5144 -25.0037 84° East  Level Estimated
Wed 01:14:00 AM 44.5305 -24.7932 84° East  Level Estimated
Wed 01:15:00 AM 44.5462 -24.5826 84° East  Level Estimated
Wed 01:16:00 AM 44.5615 -24.3720 84° East  Level Estimated
Wed 01:17:00 AM 44.5765 -24.1612 84° East  Level Estimated
Wed 01:18:00 AM 44.5910 -23.9503 84° East  Level Estimated
Wed 01:19:00 AM 44.6052 -23.7392 85° East  Level Estimated
Wed 01:20:00 AM 44.6189 -23.5281 85° East  Level Estimated
Wed 01:21:00 AM 44.6323 -23.3169 85° East  Level Estimated
Wed 01:22:00 AM 44.6453 -23.1056 85° East  Level Estimated
Wed 01:23:00 AM 44.6579 -22.8942 85° East  Level Estimated
Wed 01:24:00 AM 44.6701 -22.6827 85° East  Level Estimated
Wed 01:25:00 AM 44.6820 -22.4711 85° East  Level Estimated
Wed 01:26:00 AM 44.6934 -22.2594 86° East  Level Estimated
Wed 01:27:00 AM 44.7044 -22.0477 86° East  Level Estimated
Wed 01:28:00 AM 44.7151 -21.8358 86° East  Level Estimated
Wed 01:29:00 AM 44.7253 -21.6239 86° East  Level Estimated
Wed 01:30:00 AM 44.7352 -21.4120 86° East  Level Estimated
Wed 01:31:00 AM 44.7447 -21.1999 86° East  Level Estimated
Wed 01:32:00 AM 44.7538 -20.9878 86° East  Level Estimated
Wed 01:33:00 AM 44.7625 -20.7756 87° East  Level Estimated
Wed 01:34:00 AM 44.7708 -20.5634 87° East  Level Estimated
Wed 01:35:00 AM 44.7787 -20.3510 87° East  Level Estimated
Wed 01:36:00 AM 44.7862 -20.1387 87° East  Level Estimated
Wed 01:37:00 AM 44.7933 -19.9263 87° East  Level Estimated
Wed 01:38:00 AM 44.8000 -19.7138 87° East  Level Estimated
Wed 01:39:00 AM 44.8063 -19.5013 88° East  Level Estimated
Wed 01:40:00 AM 44.8123 -19.2887 88° East  Level Estimated
Wed 01:41:00 AM 44.8178 -19.0761 88° East  Level Estimated
Wed 01:42:00 AM 44.8230 -18.8635 88° East  Level Estimated
Wed 01:43:00 AM 44.8277 -18.6508 88° East  Level Estimated
Wed 01:44:00 AM 44.8321 -18.4381 88° East  Level Estimated
Wed 01:45:00 AM 44.8360 -18.2253 88° East  Level Estimated
Wed 01:46:00 AM 44.8396 -18.0126 89° East  Level Estimated
Wed 01:47:00 AM 44.8428 -17.7998 89° East  Level Estimated
Wed 01:48:00 AM 44.8456 -17.5870 89° East  Level Estimated
Wed 01:49:00 AM 44.8479 -17.3741 89° East  Level Estimated
Wed 01:50:00 AM 44.8499 -17.1613 89° East  Level Estimated
Wed 01:51:00 AM 44.8515 -16.9484 89° East  Level Estimated
Wed 01:52:00 AM 44.8527 -16.7355 89° East  Level Estimated
Wed 01:53:00 AM 44.8535 -16.5226 90° East  Level Estimated
Wed 01:54:00 AM 44.8539 -16.3097 90° East  Level Estimated
Wed 01:55:00 AM 44.8539 -16.0969 90° East  Level Estimated
Wed 01:56:00 AM 44.8535 -15.8840 90° East  Level Estimated
Wed 01:57:00 AM 44.8528 -15.6711 90° East  Level Estimated
Wed 01:58:00 AM 44.8516 -15.4582 90° East  Level Estimated
Wed 01:59:00 AM 44.8500 -15.2453 91° East  Level Estimated
Wed 02:00:00 AM 44.8480 -15.0325 91° East  Level Estimated
Wed 02:01:00 AM 44.8457 -14.8196 91° East  Level Estimated
Wed 02:02:00 AM 44.8429 -14.6068 91° East  Level Estimated
Wed 02:03:00 AM 44.8398 -14.3940 91° East  Level Estimated
Wed 02:04:00 AM 44.8362 -14.1813 91° East  Level Estimated
Wed 02:05:00 AM 44.8323 -13.9685 91° East  Level Estimated
Wed 02:06:00 AM 44.8279 -13.7558 92° East  Level Estimated
Wed 02:07:00 AM 44.8232 -13.5431 92° East  Level Estimated
Wed 02:08:00 AM 44.8181 -13.3305 92° East  Level Estimated
Wed 02:09:00 AM 44.8126 -13.1179 92° East  Level Estimated
Wed 02:10:00 AM 44.8066 -12.9053 92° East  Level Estimated
Wed 02:11:00 AM 44.8003 -12.6928 92° East  Level Estimated
Wed 02:12:00 AM 44.7936 -12.4803 92° East  Level Estimated
Wed 02:13:00 AM 44.7865 -12.2679 93° East  Level Estimated
Wed 02:14:00 AM 44.7790 -12.0555 93° East  Level Estimated
Wed 02:15:00 AM 44.7711 -11.8432 93° East  Level Estimated
Wed 02:15:56 AM 43.4221 -12.2757 93° East 553 636 35,100  Level FlightAware ADS-B (LECO / LCG)
Wed 02:16:00 AM 44.7629 -11.6310 93° East  Level Estimated
Wed 02:17:00 AM 44.7542 -11.4188 93° East  Level Estimated
Wed 02:17:50 AM 43.3280 -11.4553 99° East 559 643 35,100  Level FlightAware ADS-B (LECO / LCG)
Wed 02:18:40 AM 43.3071 -11.2801 99° East 560 644 35,100  Level FlightAware ADS-B (LECO / LCG)
Wed 02:19:11 AM 43.2937 -11.1680 99° East 560 644 35,100  Level FlightAware ADS-B (LECO / LCG)
Wed 02:19:41 AM 43.2811 -11.0630 99° East 561 646 35,100  Level FlightAware ADS-B (LECO / LCG)
Wed 02:20:20 AM 43.2645 -10.9299 100° East 562 647 35,100  Level FlightAware ADS-B (LECO / LCG)
Wed 02:21:02 AM 43.2463 -10.7824 100° East 562 647 35,100  Level FlightAware ADS-B (LECO / LCG)
Wed 02:21:34 AM 43.2323 -10.6702 100° East 562 647 35,100 387 Level FlightAware ADS-B (LECO / LCG)
Wed 02:22:04 AM 43.2190 -10.5650 100° East 564 649 35,500 900 Climbing FlightAware ADS-B (LECO / LCG)
Wed 02:22:34 AM 43.2062 -10.4627 100° East 565 650 36,000 514 Climbing FlightAware ADS-B (LECO / LCG)
Wed 02:23:14 AM 43.1877 -10.3182 100° East 567 652 36,100 86 Climbing FlightAware ADS-B (LECO / LCG)
Wed 02:23:44 AM 43.1738 -10.2123 100° East 566 651 36,100  Level FlightAware ADS-B (LECO / LCG)
Wed 02:24:24 AM 43.1556 -10.0717 100° East 566 651 36,100  Level FlightAware ADS-B (LECO / LCG)
Wed 02:24:54 AM 43.1417 -9.9659 100° East 566 651 36,100  Level FlightAware ADS-B (LECO / LCG)
Wed 02:25:33 AM 43.1229 -9.8254 100° East 566 651 36,100  Level FlightAware ADS-B (LECO / LCG)
Wed 02:26:04 AM 43.1087 -9.7196 100° East 567 652 36,100  Level FlightAware ADS-B (LECO / LCG)
Wed 02:26:43 AM 43.0898 -9.5788 100° East 568 654 36,100  Level FlightAware ADS-B (LECO / LCG)
Wed 02:27:14 AM 43.0753 -9.4733 101° East 568 654 36,100  Level FlightAware ADS-B (LECO / LCG)
Wed 02:27:54 AM 43.0561 -9.3325 101° East 568 654 36,100  Level FlightAware ADS-B (LECO / LCG)
Wed 02:28:24 AM 43.0409 -9.2235 101° East 567 652 36,100  Level FlightAware ADS-B (LECO / LCG)
Wed 02:29:03 AM 43.0221 -9.0899 101° East 567 652 36,100  Level FlightAware ADS-B (LECO / LCG)
Wed 02:29:44 AM 43.0024 -8.9494 101° East 566 651 36,100  Level FlightAware ADS-B (LECO / LCG)
Wed 02:30:14 AM 42.9869 -8.8409 101° East 565 650 36,100  Level FlightAware ADS-B (LECO / LCG)
Wed 02:30:44 AM 42.9721 -8.7361 101° East 565 650 36,100  Level FlightAware ADS-B (LECO / LCG)
Wed 02:31:23 AM 42.9518 -8.5961 101° East 566 651 36,100  Level FlightAware ADS-B (LECO / LCG)
Wed 02:31:54 AM 42.9369 -8.4910 101° East 566 651 36,100  Level FlightAware ADS-B (LECO / LCG)
Wed 02:32:24 AM 42.9238 -8.3819 99° East 567 652 36,100  Level FlightAware ADS-B (LECO / LCG)
Wed 02:33:04 AM 42.9130 -8.2433 96° East 568 654 36,100  Level FlightAware ADS-B (LECO / LCG)
Wed 02:33:34 AM 42.9080 -8.1473 94° East 566 651 36,100  Level FlightAware ADS-B (LECO / LCG)
Wed 02:34:04 AM 42.9017 -8.0298 94° East 567 652 36,100  Level FlightAware ADS-B (LECO / LCG)
Wed 02:34:34 AM 42.8965 -7.9375 94° East 566 651 36,100  Level FlightAware ADS-B (LECO / LCG)
Wed 02:35:09 AM 42.8882 -7.7993 95° East 564 649 36,100  Level FlightAware ADS-B (LECO / LCG)
Wed 02:35:39 AM 42.8810 -7.6899 95° East 563 648 36,100  Level FlightAware ADS-B (LECO / LCG)
Wed 02:36:09 AM 42.8738 -7.5878 95° East 561 646 36,100  Level FlightAware ADS-B (LECO / LCG)
Wed 02:36:39 AM 42.8665 -7.4822 95° East 562 647 36,100  Level FlightAware ADS-B (LECO / LCG)
Wed 02:37:09 AM 42.8587 -7.3734 96° East 561 646 36,100  Level FlightAware ADS-B (LECO / LCG)
Wed 02:37:49 AM 42.8486 -7.2334 96° East 559 643 36,100  Level FlightAware ADS-B (LECO / LCG)
Wed 02:38:19 AM 42.8409 -7.1286 96° East 559 643 36,100  Level FlightAware ADS-B (LECO / LCG)
Wed 02:38:49 AM 42.8335 -7.0272 96° East 560 644 36,100  Level FlightAware ADS-B (LECO / LCG)
Wed 02:39:19 AM 42.8257 -6.9222 96° East 559 643 36,100  Level FlightAware ADS-B (LECO / LCG)
Wed 02:39:58 AM 42.8152 -6.7826 96° East 558 642 36,100  Level FlightAware ADS-B (LECO / LCG)
Wed 02:40:29 AM 42.8072 -6.6779 96° East 558 642 36,100  Level FlightAware ADS-B (LECO / LCG)
Wed 02:40:59 AM 42.7993 -6.5733 96° East 558 642 36,100  Level FlightAware ADS-B (LECO / LCG)
Wed 02:42:02 AM 42.7820 -6.3570 96° East 557 641 36,100  Level FlightAware ADS-B
Wed 02:43:07 AM 42.7640 -6.1310 96° East 558 642 36,100  Level FlightAware ADS-B
Wed 02:44:12 AM 42.7460 -5.9010 96° East 559 643 36,100  Level FlightAware ADS-B
Wed 02:44:47 AM 42.7360 -5.7820 96° East 561 646 36,100  Level FlightAware ADS-B
Wed 02:45:18 AM 42.7270 -5.6740 96° East 562 647 36,100  Level FlightAware ADS-B
Wed 02:45:52 AM 42.7160 -5.5510 97° East 562 647 36,100  Level FlightAware ADS-B
Wed 02:46:22 AM 42.7070 -5.4500 97° East 561 646 36,100  Level FlightAware ADS-B
Wed 02:46:57 AM 42.6960 -5.3240 97° East 560 644 36,100  Level FlightAware ADS-B
Wed 02:47:42 AM 42.6820 -5.1710 97° East 560 644 36,100  Level FlightAware ADS-B
Wed 02:48:22 AM 42.6700 -5.0310 97° East 560 644 36,100  Level FlightAware ADS-B
Wed 02:48:52 AM 42.6610 -4.9300 97° East 560 644 36,100  Level FlightAware ADS-B
Wed 02:49:50 AM 42.6410 -4.7170 97° East 559 643 36,100  Level FlightAware ADS-B
Wed 02:50:31 AM 42.6280 -4.5790 97° East 558 642 36,100  Level FlightAware ADS-B
Wed 02:51:11 AM 42.6150 -4.4390 97° East 559 643 36,100  Level FlightAware ADS-B
Wed 02:51:39 AM 42.6050 -4.3420 98° East 557 641 36,100  Level FlightAware ADS-B
Wed 02:52:08 AM 42.5950 -4.2380 97° East 558 642 36,100  Level FlightAware ADS-B
Wed 02:52:43 AM 42.5830 -4.1200 98° East 560 644 36,100  Level FlightAware ADS-B
Wed 02:53:16 AM 42.5720 -4.0060 97° East 561 646 36,100  Level FlightAware ADS-B
Wed 02:54:19 AM 42.5490 -3.7830 98° East 561 646 36,100  Level FlightAware ADS-B
Wed 02:54:52 AM 42.5380 -3.6720 98° East 561 646 36,100  Level FlightAware ADS-B
Wed 02:55:59 AM 42.5140 -3.4390 98° East 561 646 36,100  Level FlightAware ADS-B
Wed 02:56:31 AM 42.5020 -3.3280 98° East 559 643 36,100  Level FlightAware ADS-B
Wed 02:57:04 AM 42.4900 -3.2130 98° East 558 642 36,100  Level FlightAware ADS-B
Wed 02:57:43 AM 42.4750 -3.0790 99° East 555 639 36,100  Level FlightAware ADS-B
Wed 02:58:24 AM 42.4590 -2.9380 99° East 552 635 36,100  Level FlightAware ADS-B
Wed 02:59:00 AM 42.4390 -2.8150 102° East 547 629 36,100  Level FlightAware ADS-B
Wed 02:59:39 AM 42.4140 -2.6870 105° East 544 626 36,100  Level FlightAware ADS-B
Wed 03:00:12 AM 42.3920 -2.5820 106° East 544 626 36,100  Level FlightAware ADS-B
Wed 03:00:57 AM 42.3610 -2.4310 105° East 542 624 36,100  Level FlightAware ADS-B
Wed 03:02:10 AM 42.3120 -2.1980 106° East 539 620 36,100  Level FlightAware ADS-B
Wed 03:02:53 AM 42.2820 -2.0590 106° East 538 619 36,100  Level FlightAware ADS-B
Wed 03:03:38 AM 42.2510 -1.9140 106° East 538 619 36,100  Level FlightAware ADS-B
Wed 03:04:32 AM 42.2140 -1.7430 106° East 537 618 36,100  Level FlightAware ADS-B
Wed 03:05:02 AM 42.1930 -1.6440 106° East 539 620 36,100  Level FlightAware ADS-B
Wed 03:05:39 AM 42.1670 -1.5210 106° East 538 619 36,100  Level FlightAware ADS-B
Wed 03:06:21 AM 42.1370 -1.3900 107° East 536 617 36,100  Level FlightAware ADS-B
Wed 03:07:04 AM 42.1080 -1.2530 106° East 536 617 36,100  Level FlightAware ADS-B
Wed 03:07:37 AM 42.0850 -1.1500 107° East 536 617 36,100  Level FlightAware ADS-B
Wed 03:08:09 AM 42.0620 -1.0450 106° East 537 618 36,100  Level FlightAware ADS-B
Wed 03:08:44 AM 42.0370 -0.9330 107° East 538 619 36,100  Level FlightAware ADS-B
Wed 03:09:23 AM 42.0090 -0.8080 107° East 540 621 36,100  Level FlightAware ADS-B
Wed 03:10:01 AM 41.9800 -0.6830 107° East 542 624 36,100  Level FlightAware ADS-B
Wed 03:10:34 AM 41.9560 -0.5800 107° East 543 625 36,100  Level FlightAware ADS-B
Wed 03:10:58 AM 41.9410 -0.5090 106° East 544 626 36,100  Level FlightAware ADS-B
Wed 03:11:58 AM 41.8950 -0.3110 107° East 546 628 36,100  Level FlightAware ADS-B
Wed 03:12:37 AM 41.8650 -0.1820 107° East 549 632 36,100  Level FlightAware ADS-B
Wed 03:13:06 AM 41.8430 -0.0840 107° East 551 634 36,100  Level FlightAware ADS-B
Wed 03:13:39 AM 41.8180 0.0200 108° East 553 636 36,100  Level FlightAware ADS-B
Wed 03:14:15 AM 41.7900 0.1380 108° East 554 638 36,100  Level FlightAware ADS-B
Wed 03:14:46 AM 41.7670 0.2390 107° East 553 636 36,100  Level FlightAware ADS-B
Wed 03:15:18 AM 41.7430 0.3410 107° East 553 636 36,100  Level FlightAware ADS-B
Wed 03:15:52 AM 41.7160 0.4540 108° East 548 631 36,100  Level FlightAware ADS-B
Wed 03:15:58 AM 41.7106 0.4765 108° East 548 631 36,100  Level FlightAware ADS-B (YBCS / CNS)
Wed 03:16:28 AM 41.6879 0.5698 108° East 546 628 36,100  Level FlightAware ADS-B (YBCS / CNS)
Wed 03:17:08 AM 41.6574 0.6980 108° East 542 624 36,100  Level FlightAware ADS-B (YBCS / CNS)
Wed 03:17:38 AM 41.6330 0.7922 109° East 538 619 36,100  Level FlightAware ADS-B (YBCS / CNS)
Wed 03:18:08 AM 41.6079 0.8861 110° East 537 618 36,100  Level FlightAware ADS-B (YBCS / CNS)
Wed 03:18:38 AM 41.5825 0.9825 109° East 534 615 36,100  Level FlightAware ADS-B (YBCS / CNS)
Wed 03:19:18 AM 41.5505 1.1030 109° East 532 612 36,100  Level FlightAware ADS-B (YBCS / CNS)
Wed 03:19:48 AM 41.5260 1.1998 109° East 535 616 36,100  Level FlightAware ADS-B (YBCS / CNS)
Wed 03:20:27 AM 41.4986 1.3226 107° East 534 615 36,100  Level FlightAware ADS-B (YBCS / CNS)
Wed 03:20:58 AM 41.4771 1.4170 107° East 533 613 36,100  Level FlightAware ADS-B (YBCS / CNS)
Wed 03:21:29 AM 41.4549 1.5144 107° East 533 613 36,100  Level FlightAware ADS-B (YBCS / CNS)
Wed 03:21:59 AM 41.4331 1.6082 107° East 533 613 36,100  Level FlightAware ADS-B (YBCS / CNS)
Wed 03:22:38 AM 41.4032 1.7333 108° East 533 613 36,100  Level FlightAware ADS-B (YBCS / CNS)
Wed 03:23:09 AM 41.3795 1.8261 109° East 533 613 36,100  Level FlightAware ADS-B (YBCS / CNS)
Wed 03:23:47 AM 41.3484 1.9471 109° East 534 615 36,100  Level FlightAware ADS-B (YBCS / CNS)
Wed 03:24:18 AM 41.3241 2.0401 109° East 534 615 36,100  Level FlightAware ADS-B (YBCS / CNS)
Wed 03:24:57 AM 41.2968 2.1635 106° East 541 623 36,100  Level FlightAware ADS-B (YBCS / CNS)
Wed 03:25:45 AM 41.2720 2.3160 102° East 541 623 36,100  Level FlightAware ADS-B
Wed 03:26:40 AM 41.2430 2.4950 102° East 540 621 36,100  Level FlightAware ADS-B
Wed 03:27:26 AM 41.2190 2.6440 102° East 541 623 36,100  Level FlightAware ADS-B
Wed 03:28:07 AM 41.1960 2.7760 103° East 542 624 36,100  Level FlightAware ADS-B
Wed 03:28:43 AM 41.1760 2.8970 102° East 542 624 36,100  Level FlightAware ADS-B
Wed 03:29:18 AM 41.1560 3.0100 103° East 541 623 36,100  Level FlightAware ADS-B
Wed 03:29:51 AM 41.1380 3.1130 103° East 540 621 36,100  Level FlightAware ADS-B
Wed 03:30:30 AM 41.1160 3.2390 103° East 541 623 36,100  Level FlightAware ADS-B
Wed 03:31:07 AM 41.0950 3.3620 103° East 542 624 36,100  Level FlightAware ADS-B
Wed 03:31:48 AM 41.0710 3.4950 103° East 545 627 36,100  Level FlightAware ADS-B
Wed 03:32:25 AM 41.0500 3.6120 103° East 546 628 36,100  Level FlightAware ADS-B
Wed 03:33:05 AM 41.0270 3.7420 103° East 547 629 36,100  Level FlightAware ADS-B
Wed 03:33:42 AM 41.0050 3.8660 103° East 547 629 36,100  Level FlightAware ADS-B
Wed 03:34:15 AM 40.9850 3.9730 104° East 545 627 36,100  Level FlightAware ADS-B
Wed 03:35:02 AM 40.9570 4.1290 103° East 546 628 36,100  Level FlightAware ADS-B
Wed 03:35:37 AM 40.9360 4.2390 104° East 545 627 36,100  Level FlightAware ADS-B
Wed 03:36:07 AM 40.9190 4.3360 103° East 545 627 36,100  Level FlightAware ADS-B
Wed 03:36:44 AM 40.8970 4.4520 104° East 544 626 36,100  Level FlightAware ADS-B
Wed 03:37:26 AM 40.8720 4.5870 104° East 544 626 36,100  Level FlightAware ADS-B
Wed 03:38:02 AM 40.8530 4.7110 101° East 544 626 36,100  Level FlightAware ADS-B
Wed 03:38:35 AM 40.8430 4.8170 97° East 546 628 36,100  Level FlightAware ADS-B
Wed 03:38:56 AM 40.8360 4.8890 97° East 546 628 36,100  Level FlightAware ADS-B
Wed 03:39:44 AM 40.8220 5.0450 97° East 547 629 36,100  Level FlightAware ADS-B
Wed 03:40:27 AM 40.8080 5.1870 97° East 547 629 36,100  Level FlightAware ADS-B
Wed 03:41:08 AM 40.7950 5.3220 97° East 546 628 36,100  Level FlightAware ADS-B
Wed 03:41:49 AM 40.7820 5.4580 97° East 546 628 36,100  Level FlightAware ADS-B
Wed 03:42:20 AM 40.7720 5.5600 97° East 546 628 36,100  Level FlightAware ADS-B
Wed 03:42:57 AM 40.7600 5.6790 98° East 547 629 36,100  Level FlightAware ADS-B
Wed 03:43:53 AM 40.7410 5.8670 98° East 547 629 36,100  Level FlightAware ADS-B
Wed 03:44:32 AM 40.7270 6.0000 98° East 548 631 36,100  Level FlightAware ADS-B
Wed 03:45:10 AM 40.7150 6.1190 98° East 549 632 36,100  Level FlightAware ADS-B
Wed 03:45:48 AM 40.7010 6.2480 98° East 550 633 36,100  Level FlightAware ADS-B
Wed 03:46:33 AM 40.6850 6.4000 98° East 550 633 36,100 379 Level FlightAware ADS-B
Wed 03:47:23 AM 40.6680 6.5560 98° East 546 628 36,700 706 Climbing FlightAware ADS-B
Wed 03:47:58 AM 40.6550 6.6750 98° East 546 628 37,100 282 Climbing FlightAware ADS-B
Wed 03:48:48 AM 40.6370 6.8390 98° East 543 625 37,100  Level FlightAware ADS-B
Wed 03:49:33 AM 40.6210 6.9860 98° East 541 623 37,100  Level FlightAware ADS-B
Wed 03:50:18 AM 40.6040 7.1320 99° East 538 619 37,100  Level FlightAware ADS-B
Wed 03:50:58 AM 40.5900 7.2610 98° East 536 617 37,100  Level FlightAware ADS-B
Wed 03:52:02 AM 40.5650 7.4700 99° East 534 615 37,100  Level FlightAware ADS-B
Wed 03:52:43 AM 40.5500 7.5980 99° East 533 613 37,100  Level FlightAware ADS-B
Wed 03:53:23 AM 40.5340 7.7260 99° East 532 612 37,100  Level FlightAware ADS-B
Wed 03:53:58 AM 40.5210 7.8370 99° East 531 611 37,100  Level FlightAware ADS-B
Wed 03:54:33 AM 40.5070 7.9490 99° East 530 610 37,100  Level FlightAware ADS-B
Wed 03:55:18 AM 40.4900 8.0910 99° East 528 608 37,100  Level FlightAware ADS-B
Wed 03:55:43 AM 40.4800 8.1700 99° East 527 606 37,100  Level FlightAware ADS-B
Wed 03:56:23 AM 40.4640 8.2970 99° East 526 605 37,100  Level FlightAware ADS-B
Wed 03:56:53 AM 40.4520 8.3910 99° East 528 608 37,100  Level FlightAware ADS-B
Wed 03:57:28 AM 40.4380 8.4980 100° East 527 606 37,100  Level FlightAware ADS-B
Wed 03:58:38 AM 40.4100 8.7200 99° East 529 609 37,100  Level FlightAware ADS-B
Wed 03:59:38 AM 40.3850 8.9100 100° East 529 609 37,100  Level FlightAware ADS-B
Wed 04:00:08 AM 40.3720 9.0080 100° East 530 610 37,100  Level FlightAware ADS-B
Wed 04:00:43 AM 40.3570 9.1190 100° East 530 610 37,100  Level FlightAware ADS-B
Wed 04:01:33 AM 40.3360 9.2780 100° East 530 610 37,100  Level FlightAware ADS-B
Wed 04:02:03 AM 40.3230 9.3730 100° East 530 610 37,100  Level FlightAware ADS-B
Wed 04:02:43 AM 40.3060 9.5000 100° East 530 610 37,100  Level FlightAware ADS-B
Wed 04:03:48 AM 40.2770 9.7060 100° East 532 612 37,100  Level FlightAware ADS-B
Wed 04:04:53 AM 40.2480 9.9120 100° East 533 613 37,100  Level FlightAware ADS-B
Wed 04:05:28 AM 40.2330 10.0230 100° East 533 613 37,100  Level FlightAware ADS-B
Wed 04:06:08 AM 40.2150 10.1490 101° East 532 612 37,100  Level FlightAware ADS-B
Wed 04:06:48 AM 40.1960 10.2750 101° East 531 611 37,100  Level FlightAware ADS-B
Wed 04:07:38 AM 40.1740 10.4330 100° East 529 609 37,100  Level FlightAware ADS-B
Wed 04:08:14 AM 40.1580 10.5420 101° East 527 606 37,100  Level FlightAware ADS-B
Wed 04:08:53 AM 40.1390 10.6670 101° East 526 605 37,100  Level FlightAware ADS-B
Wed 04:09:28 AM 40.1230 10.7790 101° East 524 603 37,100  Level FlightAware ADS-B
Wed 04:10:08 AM 40.1050 10.9000 101° East 522 601 37,100  Level FlightAware ADS-B
Wed 04:10:43 AM 40.0890 11.0080 101° East 521 600 37,100  Level FlightAware ADS-B
Wed 04:11:03 AM 40.0790 11.0730 101° East 520 598 37,100  Level FlightAware ADS-B
Wed 04:11:53 AM 40.0550 11.2260 102° East 518 596 37,100  Level FlightAware ADS-B
Wed 04:12:33 AM 40.0370 11.3460 101° East 518 596 37,100  Level FlightAware ADS-B
Wed 04:13:13 AM 40.0180 11.4710 101° East 516 594 37,100  Level FlightAware ADS-B
Wed 04:13:57 AM 39.9960 11.6080 102° East 515 593 37,100  Level FlightAware ADS-B
Wed 04:14:27 AM 39.9820 11.6960 102° East 515 593 37,100  Level FlightAware ADS-B
Wed 04:15:04 AM 39.9650 11.8080 101° East 514 592 37,100  Level FlightAware ADS-B
Wed 04:15:49 AM 39.9420 11.9470 102° East 512 589 37,100  Level FlightAware ADS-B
Wed 04:16:21 AM 39.9270 12.0410 102° East 510 587 37,100  Level FlightAware ADS-B
Wed 04:16:53 AM 39.9120 12.1370 101° East 510 587 37,100  Level FlightAware ADS-B
Wed 04:17:33 AM 39.8930 12.2570 102° East 508 585 37,100  Level FlightAware ADS-B
Wed 04:18:05 AM 39.8770 12.3520 102° East 506 582 37,100  Level FlightAware ADS-B
Wed 04:18:42 AM 39.8590 12.4600 102° East 505 581 37,100  Level FlightAware ADS-B
Wed 04:19:19 AM 39.8400 12.5720 102° East 504 580 37,100  Level FlightAware ADS-B
Wed 04:20:25 AM 39.8080 12.7670 102° East 503 579 37,100  Level FlightAware ADS-B
Wed 04:21:09 AM 39.7860 12.9000 102° East 502 578 37,100  Level FlightAware ADS-B
Wed 04:21:49 AM 39.7660 13.0180 102° East 502 578 37,100  Level FlightAware ADS-B
Wed 04:22:17 AM 39.7520 13.1000 102° East 501 577 37,100  Level FlightAware ADS-B
Wed 04:22:53 AM 39.7340 13.2030 103° East 501 577 37,100  Level FlightAware ADS-B
Wed 04:23:37 AM 39.7120 13.3320 102° East 501 577 37,100  Level FlightAware ADS-B
Wed 04:24:21 AM 39.6900 13.4610 102° East 501 577 37,100  Level FlightAware ADS-B
Wed 04:24:57 AM 39.6710 13.5670 103° East 500 575 37,100  Level FlightAware ADS-B
Wed 04:25:33 AM 39.6530 13.6720 103° East 500 575 37,100  Level FlightAware ADS-B
Wed 04:26:06 AM 39.6360 13.7650 103° East 499 574 37,100  Level FlightAware ADS-B
Wed 04:26:41 AM 39.6180 13.8700 103° East 499 574 37,100  Level FlightAware ADS-B
Wed 04:27:17 AM 39.5980 13.9780 103° East 498 573 37,100  Level FlightAware ADS-B
Wed 04:28:01 AM 39.5760 14.1020 103° East 495 570 37,100  Level FlightAware ADS-B
Wed 04:28:37 AM 39.5570 14.2060 103° East 493 567 37,100  Level FlightAware ADS-B
Wed 04:29:17 AM 39.5360 14.3200 103° East 490 564 37,100  Level FlightAware ADS-B
Wed 04:29:53 AM 39.5180 14.4230 103° East 489 563 37,100  Level FlightAware ADS-B
Wed 04:30:28 AM 39.5000 14.5170 104° East 491 565 37,100  Level FlightAware ADS-B
Wed 04:31:09 AM 39.4780 14.6380 103° East 492 566 37,100  Level FlightAware ADS-B
Wed 04:31:45 AM 39.4590 14.7410 103° East 493 567 37,100  Level FlightAware ADS-B
Wed 04:32:19 AM 39.4410 14.8410 103° East 493 567 37,100  Level FlightAware ADS-B
Wed 04:32:51 AM 39.4240 14.9270 104° East 493 567 37,100  Level FlightAware ADS-B
Wed 04:33:27 AM 39.4040 15.0330 104° East 494 568 37,100  Level FlightAware ADS-B
Wed 04:34:05 AM 39.3830 15.1450 104° East 494 568 37,100  Level FlightAware ADS-B
Wed 04:34:54 AM 39.3560 15.2880 104° East 494 568 37,100  Level FlightAware ADS-B
Wed 04:35:58 AM 39.3210 15.4680 104° East 494 568 37,100  Level FlightAware ADS-B
Wed 04:36:42 AM 39.2960 15.5940 104° East 494 568 37,100  Level FlightAware ADS-B
Wed 04:37:36 AM 39.2660 15.7480 104° East 495 570 37,100  Level FlightAware ADS-B
Wed 04:38:08 AM 39.2490 15.8370 104° East 495 570 37,100  Level FlightAware ADS-B
Wed 04:38:52 AM 39.2230 15.9660 105° East 497 572 37,100  Level FlightAware ADS-B
Wed 04:39:32 AM 39.2000 16.0840 104° East 497 572 37,100  Level FlightAware ADS-B
Wed 04:40:12 AM 39.1780 16.1960 104° East 496 571 37,100  Level FlightAware ADS-B
Wed 04:40:56 AM 39.1520 16.3210 105° East 495 570 37,100  Level FlightAware ADS-B
Wed 04:41:38 AM 39.1280 16.4440 104° East 494 568 37,100  Level FlightAware ADS-B
Wed 04:42:23 AM 39.1020 16.5690 105° East 496 571 37,100  Level FlightAware ADS-B
Wed 04:43:12 AM 39.0730 16.7120 105° East 495 570 37,100  Level FlightAware ADS-B
Wed 04:43:44 AM 39.0520 16.7990 107° East 495 570 37,100  Level FlightAware ADS-B
Wed 04:44:12 AM 39.0330 16.8800 107° East 495 570 37,100  Level FlightAware ADS-B
Wed 04:44:53 AM 39.0060 16.9930 107° East 495 570 37,100  Level FlightAware ADS-B
Wed 04:45:28 AM 38.9820 17.0940 107° East 495 570 37,100  Level FlightAware ADS-B
Wed 04:46:05 AM 38.9590 17.1930 107° East 495 570 37,100  Level FlightAware ADS-B
Wed 04:46:46 AM 38.9310 17.3110 107° East 494 568 37,100  Level FlightAware ADS-B
Wed 04:47:22 AM 38.9070 17.4150 106° East 494 568 37,100  Level FlightAware ADS-B
Wed 04:48:07 AM 38.8780 17.5380 107° East 493 567 37,100  Level FlightAware ADS-B
Wed 04:48:54 AM 38.8460 17.6690 107° East 492 566 37,100  Level FlightAware ADS-B
Wed 04:49:26 AM 38.8250 17.7580 107° East 491 565 37,100  Level FlightAware ADS-B
Wed 04:50:03 AM 38.8000 17.8610 107° East 491 565 37,100  Level FlightAware ADS-B
Wed 04:50:42 AM 38.7740 17.9690 107° East 491 565 37,100  Level FlightAware ADS-B
Wed 04:51:24 AM 38.7450 18.0890 107° East 491 565 37,100  Level FlightAware ADS-B
Wed 04:52:00 AM 38.7210 18.1890 107° East 491 565 37,100  Level FlightAware ADS-B
Wed 04:52:36 AM 38.6960 18.2880 108° East 491 565 37,100  Level FlightAware ADS-B
Wed 04:53:24 AM 38.6630 18.4220 107° East 491 565 37,100  Level FlightAware ADS-B
Wed 04:53:57 AM 38.6410 18.5100 108° East 491 565 37,100  Level FlightAware ADS-B
Wed 04:54:33 AM 38.6160 18.6130 107° East 493 567 37,100  Level FlightAware ADS-B
Wed 04:55:13 AM 38.5880 18.7240 108° East 494 568 37,100  Level FlightAware ADS-B
Wed 04:55:57 AM 38.5570 18.8460 108° East 495 570 37,100  Level FlightAware ADS-B
Wed 04:56:38 AM 38.5370 18.9240 108° East 495 570 37,100  Level FlightAware ADS-B
Wed 04:57:14 AM 38.5180 19.0040 107° East 494 568 37,100  Level FlightAware ADS-B
Wed 04:57:50 AM 38.4980 19.0900 107° East 494 568 37,100  Level FlightAware ADS-B
Wed 04:58:26 AM 38.4770 19.1750 107° East 494 568 37,100  Level FlightAware ADS-B
Wed 04:59:00 AM 38.4230 19.3090 117° Southeast 495 570 37,100  Level FlightAware ADS-B
Wed 04:59:32 AM 38.3980 19.3960 110° East 495 570 37,100  Level FlightAware ADS-B
Wed 05:00:04 AM 38.3730 19.4780 111° Southeast 494 568 37,100  Level FlightAware ADS-B
Wed 05:01:15 AM 38.3180 19.6630 111° Southeast 494 568 37,100  Level FlightAware ADS-B
Wed 05:01:55 AM 38.2840 19.7760 111° Southeast 493 567 37,100  Level FlightAware ADS-B
Wed 05:02:27 AM 38.2570 19.8630 112° Southeast 492 566 37,100  Level FlightAware ADS-B
Wed 05:02:59 AM 38.2310 19.9490 111° Southeast 492 566 37,100  Level FlightAware ADS-B
Wed 05:03:47 AM 38.1780 20.1220 111° Southeast 492 566 37,100  Level FlightAware ADS-B
Wed 05:04:23 AM 38.1510 20.2130 111° Southeast 492 566 37,100  Level FlightAware ADS-B
Wed 05:05:07 AM 38.1130 20.3340 112° Southeast 492 566 37,100  Level FlightAware ADS-B
Wed 05:05:48 AM 38.0830 20.4330 111° Southeast 492 566 37,100  Level FlightAware ADS-B
Wed 05:06:13 AM 38.0660 20.4910 110° East 492 566 37,100  Level FlightAware ADS-B
Wed 05:07:10 AM 38.0100 20.6650 112° Southeast 493 567 37,100  Level FlightAware ADS-B
Wed 05:07:49 AM 37.9770 20.7690 112° Southeast 493 567 37,100  Level FlightAware ADS-B
Wed 05:08:41 AM 37.9320 20.9120 112° Southeast 495 570 37,100  Level FlightAware ADS-B
Wed 05:09:18 AM 37.9010 21.0110 112° Southeast 495 570 37,100  Level FlightAware ADS-B
Wed 05:09:59 AM 37.8670 21.1190 112° Southeast 495 570 37,100  Level FlightAware ADS-B
Wed 05:10:30 AM 37.8430 21.1940 112° Southeast 495 570 37,100  Level FlightAware ADS-B
Wed 05:11:03 AM 37.8110 21.2940 112° Southeast 496 571 37,100  Level FlightAware ADS-B
Wed 05:11:51 AM 37.7690 21.4250 112° Southeast 496 571 37,100  Level FlightAware ADS-B
Wed 05:12:29 AM 37.7380 21.5220 112° Southeast 496 571 37,100  Level FlightAware ADS-B
Wed 05:13:31 AM 37.6830 21.6910 112° Southeast 497 572 37,100  Level FlightAware ADS-B
Wed 05:14:12 AM 37.6470 21.8010 112° Southeast 498 573 37,100  Level FlightAware ADS-B
Wed 05:15:17 AM 37.5900 21.9780 112° Southeast 498 573 37,100  Level FlightAware ADS-B
Wed 05:15:52 AM 37.5600 22.0670 113° Southeast 497 572 37,100  Level FlightAware ADS-B
Wed 05:16:31 AM 37.5250 22.1740 112° Southeast 497 572 37,100  Level FlightAware ADS-B
Wed 05:17:10 AM 37.4920 22.2750 112° Southeast 497 572 37,100  Level FlightAware ADS-B
Wed 05:17:55 AM 37.4510 22.3980 113° Southeast 498 573 37,100  Level FlightAware ADS-B
Wed 05:18:31 AM 37.4190 22.4940 113° Southeast 497 572 37,100  Level FlightAware ADS-B
Wed 05:19:32 AM 37.3650 22.6570 113° Southeast 498 573 37,100  Level FlightAware ADS-B
Wed 05:20:16 AM 37.3240 22.7770 113° Southeast 499 574 37,100  Level FlightAware ADS-B
Wed 05:21:00 AM 37.2850 22.8940 113° Southeast 500 575 37,100  Level FlightAware ADS-B
Wed 05:21:35 AM 37.2530 22.9880 113° Southeast 500 575 37,100  Level FlightAware ADS-B
Wed 05:22:01 AM 37.2300 23.0550 113° Southeast 502 578 37,100  Level FlightAware ADS-B
Wed 05:23:04 AM 37.1730 23.2230 113° Southeast 503 579 37,100  Level FlightAware ADS-B
Wed 05:23:42 AM 37.1370 23.3250 114° Southeast 503 579 37,100  Level FlightAware ADS-B
Wed 05:24:14 AM 37.1090 23.4080 113° Southeast 503 579 37,100  Level FlightAware ADS-B
Wed 05:24:53 AM 37.0720 23.5150 113° Southeast 504 580 37,100  Level FlightAware ADS-B
Wed 05:25:37 AM 37.0320 23.6330 113° Southeast 505 581 37,100  Level FlightAware ADS-B
Wed 05:26:33 AM 36.9790 23.7830 114° Southeast 505 581 37,100  Level FlightAware ADS-B
Wed 05:27:10 AM 36.9440 23.8850 113° Southeast 505 581 37,100  Level FlightAware ADS-B
Wed 05:27:41 AM 36.9160 23.9620 114° Southeast 505 581 37,100  Level FlightAware ADS-B
Wed 05:28:29 AM 36.8710 24.0930 113° Southeast 505 581 37,100  Level FlightAware ADS-B
Wed 05:29:36 AM 36.8080 24.2710 114° Southeast 505 581 37,100  Level FlightAware ADS-B
Wed 05:30:21 AM 36.7660 24.3910 114° Southeast 505 581 37,100  Level FlightAware ADS-B
Wed 05:31:00 AM 36.7290 24.4920 115° Southeast 504 580 37,100  Level FlightAware ADS-B
Wed 05:31:53 AM 36.6780 24.6350 114° Southeast 504 580 37,100  Level FlightAware ADS-B
Wed 05:32:29 AM 36.6430 24.7330 114° Southeast 504 580 37,100  Level FlightAware ADS-B
Wed 05:33:02 AM 36.6130 24.8180 114° Southeast 504 580 37,100  Level FlightAware ADS-B
Wed 05:33:45 AM 36.5710 24.9350 114° Southeast 505 581 37,100  Level FlightAware ADS-B
Wed 05:34:21 AM 36.5370 25.0270 115° Southeast 505 581 37,100  Level FlightAware ADS-B
Wed 05:35:01 AM 36.4980 25.1330 115° Southeast 504 580 37,100  Level FlightAware ADS-B
Wed 05:35:41 AM 36.4590 25.2410 114° Southeast 504 580 37,100  Level FlightAware ADS-B
Wed 05:36:13 AM 36.4290 25.3230 114° Southeast 505 581 37,100  Level FlightAware ADS-B
Wed 05:36:51 AM 36.3920 25.4230 115° Southeast 506 582 37,100  Level FlightAware ADS-B
Wed 05:37:40 AM 36.3440 25.5530 115° Southeast 507 583 37,100  Level FlightAware ADS-B
Wed 05:38:25 AM 36.3000 25.6740 114° Southeast 508 585 37,100  Level FlightAware ADS-B
Wed 05:39:01 AM 36.2650 25.7670 115° Southeast 509 586 37,100  Level FlightAware ADS-B
Wed 05:39:51 AM 36.2150 25.9000 115° Southeast 510 587 37,100  Level FlightAware ADS-B
Wed 05:40:41 AM 36.1660 26.0320 115° Southeast 510 587 37,100  Level FlightAware ADS-B
Wed 05:41:35 AM 36.1120 26.1750 115° Southeast 510 587 37,100  Level FlightAware ADS-B
Wed 05:42:11 AM 36.0760 26.2730 114° Southeast 509 586 37,100  Level FlightAware ADS-B
Wed 05:43:01 AM 36.0260 26.4020 116° Southeast 508 585 37,100  Level FlightAware ADS-B
Wed 05:43:37 AM 35.9910 26.4970 114° Southeast 507 583 37,100  Level FlightAware ADS-B
Wed 05:44:21 AM 35.9460 26.6150 115° Southeast 506 582 37,100  Level FlightAware ADS-B
Wed 05:45:01 AM 35.9060 26.7190 115° Southeast 506 582 37,100  Level FlightAware ADS-B
Wed 05:45:24 AM 35.8840 26.7760 115° Southeast 505 581 37,100  Level FlightAware ADS-B
Wed 05:46:11 AM 35.8380 26.8960 115° Southeast 501 577 37,100  Level FlightAware ADS-B
Wed 05:46:55 AM 35.7930 27.0130 115° Southeast 504 580 37,100  Level FlightAware ADS-B
Wed 05:47:37 AM 35.7500 27.1240 115° Southeast 504 580 37,100  Level FlightAware ADS-B
Wed 05:48:21 AM 35.7080 27.2330 115° Southeast 505 581 37,100  Level FlightAware ADS-B
Wed 05:49:01 AM 35.6660 27.3390 116° Southeast 505 581 37,100  Level FlightAware ADS-B
Wed 05:49:49 AM 35.6170 27.4630 116° Southeast 505 581 37,100  Level FlightAware ADS-B
Wed 05:50:37 AM 35.5690 27.5870 115° Southeast 507 583 37,100  Level FlightAware ADS-B
Wed 05:51:17 AM 35.5270 27.6940 116° Southeast 508 585 37,100  Level FlightAware ADS-B
Wed 05:51:53 AM 35.4900 27.7870 116° Southeast 508 585 37,100  Level FlightAware ADS-B
Wed 05:52:29 AM 35.4540 27.8760 116° Southeast 509 586 37,100  Level FlightAware ADS-B
Wed 05:53:17 AM 35.4050 28.0000 116° Southeast 510 587 37,100  Level FlightAware ADS-B
Wed 05:53:58 AM 35.3610 28.1090 116° Southeast 510 587 37,100  Level FlightAware ADS-B
Wed 05:54:44 AM 35.3150 28.2260 116° Southeast 512 589 37,100  Level FlightAware ADS-B
Wed 05:55:05 AM 35.2920 28.2830 116° Southeast 512 589 37,100  Level FlightAware ADS-B
Wed 05:56:09 AM 35.2250 28.4500 116° Southeast 512 589 37,100  Level FlightAware ADS-B
Wed 05:56:55 AM 35.1750 28.5720 117° Southeast 513 590 37,100  Level FlightAware ADS-B
Wed 05:57:35 AM 35.1340 28.6730 116° Southeast 513 590 37,100  Level FlightAware ADS-B
Wed 05:58:14 AM 35.0990 28.7600 116° Southeast 513 590 37,100  Level FlightAware ADS-B
Wed 05:58:47 AM 35.0580 28.8600 117° Southeast 513 590 37,100  Level FlightAware ADS-B
Wed 05:59:49 AM 34.9920 29.0210 117° Southeast 515 593 37,100  Level FlightAware ADS-B
Wed 06:00:59 AM 34.9170 29.2030 117° Southeast 516 594 37,100  Level FlightAware ADS-B
Wed 06:01:25 AM 34.8890 29.2700 117° Southeast 516 594 37,100  Level FlightAware ADS-B
Wed 06:02:04 AM 34.8550 29.3560 116° Southeast 516 594 37,100  Level FlightAware ADS-B
Wed 06:02:55 AM 34.7910 29.5040 118° Southeast 517 595 37,100  Level FlightAware ADS-B
Wed 06:03:32 AM 34.7530 29.5970 116° Southeast 514 592 37,100  Level FlightAware ADS-B
Wed 06:04:17 AM 34.7030 29.7160 117° Southeast 515 593 37,100  Level FlightAware ADS-B
Wed 06:05:08 AM 34.6480 29.8460 117° Southeast 516 594 37,100  Level FlightAware ADS-B
Wed 06:05:24 AM 34.6350 29.8770 117° Southeast 516 594 37,100  Level FlightAware ADS-B
Wed 06:06:13 AM 34.5920 29.9860 116° Southeast 516 594 37,100  Level FlightAware ADS-B
Wed 06:06:53 AM 34.5250 30.1090 123° Southeast 536 617 37,100  Level FlightAware ADS-B
Wed 06:07:43 AM 34.4610 30.2420 120° Southeast 519 597 37,100  Level FlightAware ADS-B
Wed 06:08:23 AM 34.4140 30.3410 120° Southeast 520 598 37,100  Level FlightAware ADS-B
Wed 06:08:59 AM 34.3730 30.4270 120° Southeast 520 598 37,100  Level FlightAware ADS-B
Wed 06:09:38 AM 34.3250 30.5270 120° Southeast 519 597 37,100  Level FlightAware ADS-B
Wed 06:10:23 AM 34.2700 30.6400 120° Southeast 518 596 37,100  Level FlightAware ADS-B
Wed 06:10:53 AM 34.2330 30.7170 120° Southeast 518 596 37,100  Level FlightAware ADS-B
Wed 06:11:54 AM 34.1590 30.8700 120° Southeast 516 594 37,100  Level FlightAware ADS-B
Wed 06:12:40 AM 34.1050 30.9810 120° Southeast 516 594 37,100  Level FlightAware ADS-B
Wed 06:13:14 AM 34.0640 31.0660 120° Southeast 517 595 37,100  Level FlightAware ADS-B
Wed 06:13:50 AM 34.0210 31.1530 121° Southeast 513 590 37,100  Level FlightAware ADS-B
Wed 06:14:24 AM 33.9770 31.2430 121° Southeast 514 592 37,100  Level FlightAware ADS-B
Wed 06:14:59 AM 33.9340 31.3300 121° Southeast 516 594 37,100  Level FlightAware ADS-B
Wed 06:15:35 AM 33.8900 31.4190 121° Southeast 518 596 37,100  Level FlightAware ADS-B
Wed 06:16:15 AM 33.8400 31.5220 120° Southeast 520 598 37,100  Level FlightAware ADS-B
Wed 06:17:01 AM 33.7830 31.6350 121° Southeast 521 600 37,100  Level FlightAware ADS-B
Wed 06:17:42 AM 33.7330 31.7350 121° Southeast 521 600 37,100  Level FlightAware ADS-B
Wed 06:18:22 AM 33.6830 31.8350 121° Southeast 521 600 37,100  Level FlightAware ADS-B
Wed 06:18:58 AM 33.6390 31.9250 120° Southeast 521 600 37,100  Level FlightAware ADS-B
Wed 06:19:34 AM 33.5950 32.0130 121° Southeast 526 605 37,100  Level FlightAware ADS-B
Wed 06:20:08 AM 33.5530 32.0980 121° Southeast 521 600 37,100  Level FlightAware ADS-B
Wed 06:20:43 AM 33.5060 32.1870 122° Southeast 526 605 37,100  Level FlightAware ADS-B
Wed 06:21:23 AM 33.4560 32.2900 120° Southeast 526 605 37,100 -80 Level FlightAware ADS-B
Wed 06:21:58 AM 33.4110 32.3770 122° Southeast 525 604 37,000 -592 Descending FlightAware ADS-B
Wed 06:22:34 AM 33.3670 32.4640 121° Southeast 522 601 36,400 -987 Descending FlightAware ADS-B
Wed 06:23:17 AM 33.3110 32.5720 122° Southeast 517 595 35,700 -963 Descending FlightAware ADS-B
Wed 06:23:55 AM 33.2660 32.6620 121° Southeast 510 587 35,100 -1,143 Descending FlightAware ADS-B
Wed 06:24:20 AM 33.2370 32.7200 121° Southeast 502 578 34,500 -2,084 Descending FlightAware ADS-B
Wed 06:25:30 AM 33.1560 32.8770 122° Southeast 495 570 31,800 -2,367 Descending FlightAware ADS-B
Wed 06:26:09 AM 33.1040 32.9790 121° Southeast 485 558 30,200 -2,313 Descending FlightAware ADS-B
Wed 06:26:53 AM 33.0520 33.0780 122° Southeast 474 545 28,600 -2,118 Descending FlightAware ADS-B
Wed 06:27:34 AM 33.0060 33.1660 122° Southeast 464 534 27,200 -2,020 Descending FlightAware ADS-B
Wed 06:28:31 AM 32.9430 33.2870 122° Southeast 446 513 25,300 -2,018 Descending FlightAware ADS-B
Wed 06:29:24 AM 32.8880 33.3960 121° Southeast 430 495 23,500 -1,958 Descending FlightAware ADS-B
Wed 06:30:06 AM 32.8430 33.4810 122° Southeast 416 479 22,200 -1,857 Descending FlightAware ADS-B
Wed 06:30:48 AM 32.8010 33.5610 122° Southeast 404 465 20,900 -1,792 Descending FlightAware ADS-B
Wed 06:31:23 AM 32.7670 33.6270 121° Southeast 395 455 19,900 -1,786 Descending FlightAware ADS-B
Wed 06:32:12 AM 32.7200 33.7150 122° Southeast 382 440 18,400 -1,787 Descending FlightAware ADS-B
Wed 06:32:57 AM 32.6780 33.7960 122° Southeast 371 427 17,100 -1,688 Descending FlightAware ADS-B
Wed 06:33:48 AM 32.6330 33.8810 122° Southeast 360 414 15,700 -1,582 Descending FlightAware ADS-B
Wed 06:34:28 AM 32.5980 33.9480 122° Southeast 359 413 14,700 -1,624 Descending FlightAware ADS-B
Wed 06:35:13 AM 32.5570 34.0260 122° Southeast 364 419 13,400 -1,671 Descending FlightAware ADS-B
Wed 06:35:47 AM 32.5270 34.0810 123° Southeast 354 407 12,500 -1,595 Descending FlightAware ADS-B
Wed 06:36:32 AM 32.4870 34.1530 123° Southeast 344 396 11,300 -1,432 Descending FlightAware ADS-B
Wed 06:37:15 AM 32.4430 34.2110 132° Southeast 331 381 10,400 -1,065 Descending FlightAware ADS-B
Wed 06:37:34 AM 32.4220 34.2360 135° Southeast 316 364 10,200 -700 Descending FlightAware ADS-B
Wed 06:38:15 AM 32.3810 34.2830 136° Southeast 293 337 9,700 -1,034 Descending FlightAware ADS-B
Wed 06:39:01 AM 32.3360 34.3360 135° Southeast 289 333 8,700 -1,125 Descending FlightAware ADS-B
Wed 06:39:35 AM 32.3070 34.3700 135° Southeast 287 330 8,200 -870 Descending FlightAware ADS-B
Wed 06:40:10 AM 32.2740 34.4080 136° Southeast 284 327 7,700 -857 Descending FlightAware ADS-B
Wed 06:40:45 AM 32.2420 34.4460 135° Southeast 279 321 7,200 -975 Descending FlightAware ADS-B
Wed 06:41:30 AM 32.2080 34.5020 126° Southeast 274 315 6,400 -723 Descending FlightAware ADS-B
Wed 06:42:08 AM 32.1850 34.5480 121° Southeast 274 315 6,200 -975 Descending FlightAware ADS-B
Wed 06:42:50 AM 32.1570 34.6020 121° Southeast 259 298 5,100 -947 Descending FlightAware ADS-B
Wed 06:43:24 AM 32.1330 34.6460 123° Southeast 264 304 5,000 -111 Descending FlightAware ADS-B
Wed 06:43:44 AM 32.1190 34.6700 125° Southeast 263 303 5,000  Level FlightAware ADS-B
Wed 06:44:24 AM 32.0940 34.7150 123° Southeast 265 305 5,000  Level FlightAware ADS-B
Wed 06:45:04 AM 32.0690 34.7610 123° Southeast 237 273 5,000 -253 Level FlightAware ADS-B
Wed 06:45:59 AM 32.0310 34.8080 134° Southeast 216 249 4,600 -297 Descending FlightAware ADS-B
Wed 06:46:45 AM 31.9990 34.8450 136° Southeast 196 226 4,500 -592 Descending FlightAware ADS-B
Wed 06:47:10 AM 31.9820 34.8650 135° Southeast 197 227 3,900 -1,556 Descending FlightAware ADS-B
Wed 06:47:39 AM 31.9730 34.8910 112° Southeast 193 222 3,100 -1,268 Descending FlightAware ADS-B
Wed 06:48:21 AM 31.9810 34.9300 76° East 188 216 2,400 -1,014 Descending FlightAware ADS-B
Wed 06:48:50 AM 31.9920 34.9580 65° Northeast 186 214 1,900 -1,054 Descending FlightAware ADS-B
Wed 06:49:35 AM 32.0240 34.9500 348° North 167 192 1,100 -732 Descending FlightAware ADS-B
Wed 06:50:12 AM 32.0290 34.9200 281° West 163 188 900 -324 Descending FlightAware ADS-B

Login

Don't have an account? Register now (free) for customized features, flight alerts, and more!